Accueil
METAR-TAF:

METAR-TAF

Aéroports :

Petawawa, Ontario, Canada

latitude: 45-57N, longitude: 077-19W, altitude: 130 m

Observation

Le bulletin a été fait il y a 39 minutes, à 09:00 UTC
Vent 4 kt de sud-est
Température 11°C
Humidité 66%
Pression 1016 hPa
Visibilité: 14.5 km
Quelques nuages à une hauteur de 4600 ft

METAR: CYWA 230900Z AUTO 13004KT 9SM FEW046 11/05 A3000 RMK SLP160

Heure: 05:39 (09:39 UTC)

Prévision

Le bulletin a été fait il y a 4 heures et 9 minutes, à 05:30 UTC
Prévision valable du 23 à 06 UTC au 23 à 18 UTC
Vent 5 kt de sud-est
Visibilité: 10 km
Ciel couvert à une hauteur de 6000 ft
A partir de 23 à 1400 UTC
Vent 10 kt de est/sud-est
Visibilité: 10 km
Nuages épars à une hauteur de 2000 ft
Ciel couvert à une hauteur de 12000 ft

TAF: CYWA 230530Z 2306/2318 14005KT P6SM OVC060 FM231400 12010KT P6SM SCT020 OVC120 RMK FCST BASED ON AUTO OBS. NXT FCST BY 231200Z

Observations et prévisions météorologiques de plus de 4000 aéroports (messages METAR et TAF).

Les stations disponibles sont représentées par des disques jaunes et rouges sur la carte.

Passer la souris dessus pour voir le nom de la station.

Cliquer dessus pour voir les observations et prévisions météorologiques.

Pour changer de carte: cliquez sur les boutons verts avec une croix noire pour zoomer, sur le bouton vert avec un tiret pour effectuer un zoom arrière, ou sur les flèches vertes pour les cartes adjacentes.


METAR-TAF: